sensor_id;sensor_type;location;lat;lon;timestamp;pressure;altitude;pressure_sealevel;temperature;humidity
46015;BME280;36844;51.898;-0.874;2023-12-29T00:01:55;99313.38;;;18.59;
46015;BME280;36844;51.898;-0.874;2023-12-29T00:04:21;99307.56;;;18.60;
46015;BME280;36844;51.898;-0.874;2023-12-29T00:06:46;99303.56;;;18.52;
46015;BME280;36844;51.898;-0.874;2023-12-29T00:09:12;99320.28;;;18.60;
46015;BME280;36844;51.898;-0.874;2023-12-29T00:11:38;99310.53;;;18.50;
46015;BME280;36844;51.898;-0.874;2023-12-29T00:14:03;99322.75;;;18.54;
46015;BME280;36844;51.898;-0.874;2023-12-29T00:16:29;99317.63;;;18.44;
46015;BME280;36844;51.898;-0.874;2023-12-29T00:18:54;99312.16;;;18.47;
46015;BME280;36844;51.898;-0.874;2023-12-29T00:21:19;99318.97;;;18.52;
46015;BME280;36844;51.898;-0.874;2023-12-29T00:23:45;99307.94;;;18.46;
46015;BME280;36844;51.898;-0.874;2023-12-29T00:26:10;99313.44;;;18.43;
46015;BME280;36844;51.898;-0.874;2023-12-29T00:28:35;99318.50;;;18.41;
46015;BME280;36844;51.898;-0.874;2023-12-29T00:31:05;99310.91;;;18.36;
46015;BME280;36844;51.898;-0.874;2023-12-29T00:33:30;99323.56;;;18.39;
46015;BME280;36844;51.898;-0.874;2023-12-29T00:35:57;99319.34;;;18.38;
46015;BME280;36844;51.898;-0.874;2023-12-29T00:38:22;99308.66;;;18.34;
46015;BME280;36844;51.898;-0.874;2023-12-29T00:40:48;99318.25;;;18.35;
46015;BME280;36844;51.898;-0.874;2023-12-29T00:43:13;99322.47;;;18.36;
46015;BME280;36844;51.898;-0.874;2023-12-29T00:45:39;99323.41;;;18.30;
46015;BME280;36844;51.898;-0.874;2023-12-29T00:48:04;99335.16;;;18.36;
46015;BME280;36844;51.898;-0.874;2023-12-29T00:50:30;99323.50;;;18.26;
46015;BME280;36844;51.898;-0.874;2023-12-29T00:52:55;99335.06;;;18.27;
46015;BME280;36844;51.898;-0.874;2023-12-29T00:55:20;99327.47;;;18.22;
46015;BME280;36844;51.898;-0.874;2023-12-29T00:57:46;99317.78;;;18.24;
46015;BME280;36844;51.898;-0.874;2023-12-29T01:00:12;99303.56;;;18.24;
46015;BME280;36844;51.898;-0.874;2023-12-29T01:02:38;99288.22;;;18.21;
46015;BME280;36844;51.898;-0.874;2023-12-29T01:05:04;99293.47;;;18.28;
46015;BME280;36844;51.898;-0.874;2023-12-29T01:07:29;99279.91;;;18.15;
46015;BME280;36844;51.898;-0.874;2023-12-29T01:09:55;99288.97;;;18.21;
46015;BME280;36844;51.898;-0.874;2023-12-29T01:12:20;99281.53;;;18.13;
46015;BME280;36844;51.898;-0.874;2023-12-29T01:14:45;99283.78;;;18.14;
46015;BME280;36844;51.898;-0.874;2023-12-29T01:17:10;99288.41;;;18.14;
46015;BME280;36844;51.898;-0.874;2023-12-29T01:19:36;99304.38;;;18.21;
46015;BME280;36844;51.898;-0.874;2023-12-29T01:22:01;99297.69;;;18.13;
46015;BME280;36844;51.898;-0.874;2023-12-29T01:24:27;99298.44;;;18.13;
46015;BME280;36844;51.898;-0.874;2023-12-29T01:26:52;99289.88;;;18.02;
46015;BME280;36844;51.898;-0.874;2023-12-29T01:29:17;99313.78;;;18.16;
46015;BME280;36844;51.898;-0.874;2023-12-29T01:31:42;99293.25;;;18.06;
46015;BME280;36844;51.898;-0.874;2023-12-29T01:34:08;99305.13;;;18.09;
46015;BME280;36844;51.898;-0.874;2023-12-29T01:36:33;99290.88;;;18.08;
46015;BME280;36844;51.898;-0.874;2023-12-29T01:38:58;99312.34;;;18.12;
46015;BME280;36844;51.898;-0.874;2023-12-29T01:41:24;99300.56;;;18.06;
46015;BME280;36844;51.898;-0.874;2023-12-29T01:46:33;99287.84;;;18.06;
46015;BME280;36844;51.898;-0.874;2023-12-29T01:48:59;99287.38;;;17.95;
46015;BME280;36844;51.898;-0.874;2023-12-29T01:51:26;99299.78;;;18.05;
46015;BME280;36844;51.898;-0.874;2023-12-29T01:53:56;99289.63;;;17.97;
46015;BME280;36844;51.898;-0.874;2023-12-29T01:56:22;99289.81;;;17.90;
46015;BME280;36844;51.898;-0.874;2023-12-29T01:58:49;99312.63;;;18.01;
46015;BME280;36844;51.898;-0.874;2023-12-29T02:01:16;99292.84;;;17.92;
46015;BME280;36844;51.898;-0.874;2023-12-29T02:03:42;99294.09;;;17.87;
46015;BME280;36844;51.898;-0.874;2023-12-29T02:06:09;99304.78;;;17.91;
46015;BME280;36844;51.898;-0.874;2023-12-29T02:08:36;99297.91;;;17.90;
46015;BME280;36844;51.898;-0.874;2023-12-29T02:11:02;99317.72;;;17.96;
46015;BME280;36844;51.898;-0.874;2023-12-29T02:13:27;99314.13;;;17.86;
46015;BME280;36844;51.898;-0.874;2023-12-29T02:15:54;99329.88;;;17.88;
46015;BME280;36844;51.898;-0.874;2023-12-29T02:18:22;99332.66;;;17.84;
46015;BME280;36844;51.898;-0.874;2023-12-29T02:20:48;99324.16;;;17.69;
46015;BME280;36844;51.898;-0.874;2023-12-29T02:23:13;99352.16;;;17.88;
46015;BME280;36844;51.898;-0.874;2023-12-29T02:25:39;99348.38;;;17.86;
46015;BME280;36844;51.898;-0.874;2023-12-29T02:28:11;99329.28;;;17.80;
46015;BME280;36844;51.898;-0.874;2023-12-29T02:30:46;99321.97;;;17.81;
46015;BME280;36844;51.898;-0.874;2023-12-29T02:33:17;99339.53;;;17.85;
46015;BME280;36844;51.898;-0.874;2023-12-29T02:35:45;99331.69;;;17.74;
46015;BME280;36844;51.898;-0.874;2023-12-29T02:38:11;99320.94;;;17.74;
46015;BME280;36844;51.898;-0.874;2023-12-29T02:40:37;99321.38;;;17.73;
46015;BME280;36844;51.898;-0.874;2023-12-29T02:43:03;99294.53;;;17.69;
46015;BME280;36844;51.898;-0.874;2023-12-29T02:45:28;99295.63;;;17.72;
46015;BME280;36844;51.898;-0.874;2023-12-29T02:47:54;99297.25;;;17.69;
46015;BME280;36844;51.898;-0.874;2023-12-29T02:50:19;99287.19;;;17.70;
46015;BME280;36844;51.898;-0.874;2023-12-29T02:52:44;99296.78;;;17.71;
46015;BME280;36844;51.898;-0.874;2023-12-29T02:55:10;99307.34;;;17.65;
46015;BME280;36844;51.898;-0.874;2023-12-29T02:57:35;99295.44;;;17.63;
46015;BME280;36844;51.898;-0.874;2023-12-29T03:00:00;99306.97;;;17.63;
46015;BME280;36844;51.898;-0.874;2023-12-29T03:02:26;99302.44;;;17.60;
46015;BME280;36844;51.898;-0.874;2023-12-29T03:04:51;99306.06;;;17.70;
46015;BME280;36844;51.898;-0.874;2023-12-29T03:07:17;99310.34;;;17.67;
46015;BME280;36844;51.898;-0.874;2023-12-29T03:09:42;99312.63;;;17.69;
46015;BME280;36844;51.898;-0.874;2023-12-29T03:12:07;99305.81;;;17.64;
46015;BME280;36844;51.898;-0.874;2023-12-29T03:14:33;99303.59;;;17.59;
46015;BME280;36844;51.898;-0.874;2023-12-29T03:16:58;99299.81;;;17.57;
46015;BME280;36844;51.898;-0.874;2023-12-29T03:19:24;99297.91;;;17.57;
46015;BME280;36844;51.898;-0.874;2023-12-29T03:21:49;99288.38;;;17.53;
46015;BME280;36844;51.898;-0.874;2023-12-29T03:24:15;99306.97;;;17.63;
46015;BME280;36844;51.898;-0.874;2023-12-29T03:26:40;99299.06;;;17.56;
46015;BME280;36844;51.898;-0.874;2023-12-29T03:29:06;99304.81;;;17.58;
46015;BME280;36844;51.898;-0.874;2023-12-29T03:31:31;99288.47;;;17.49;
46015;BME280;36844;51.898;-0.874;2023-12-29T03:33:57;99286.84;;;17.52;
46015;BME280;36844;51.898;-0.874;2023-12-29T03:36:22;99283.06;;;17.49;
46015;BME280;36844;51.898;-0.874;2023-12-29T03:38:47;99290.31;;;17.52;
46015;BME280;36844;51.898;-0.874;2023-12-29T03:41:12;99279.91;;;17.54;
46015;BME280;36844;51.898;-0.874;2023-12-29T03:43:38;99268.53;;;17.47;
46015;BME280;36844;51.898;-0.874;2023-12-29T03:46:03;99266.94;;;17.49;
46015;BME280;36844;51.898;-0.874;2023-12-29T03:48:39;99261.81;;;17.39;
46015;BME280;36844;51.898;-0.874;2023-12-29T03:51:04;99269.31;;;17.47;
46015;BME280;36844;51.898;-0.874;2023-12-29T03:53:30;99270.69;;;17.52;
46015;BME280;36844;51.898;-0.874;2023-12-29T03:55:55;99249.78;;;17.43;
46015;BME280;36844;51.898;-0.874;2023-12-29T03:58:21;99259.25;;;17.48;
46015;BME280;36844;51.898;-0.874;2023-12-29T04:00:46;99238.75;;;17.38;
46015;BME280;36844;51.898;-0.874;2023-12-29T04:03:11;99238.66;;;17.41;
46015;BME280;36844;51.898;-0.874;2023-12-29T04:05:37;99228.66;;;17.42;
46015;BME280;36844;51.898;-0.874;2023-12-29T04:08:02;99243.72;;;17.39;
46015;BME280;36844;51.898;-0.874;2023-12-29T04:10:27;99245.47;;;17.46;
46015;BME280;36844;51.898;-0.874;2023-12-29T04:12:53;99219.66;;;17.32;
46015;BME280;36844;51.898;-0.874;2023-12-29T04:15:18;99214.22;;;17.36;
46015;BME280;36844;51.898;-0.874;2023-12-29T04:17:43;99210.41;;;17.33;
46015;BME280;36844;51.898;-0.874;2023-12-29T04:20:09;99218.06;;;17.35;
46015;BME280;36844;51.898;-0.874;2023-12-29T04:22:34;99227.69;;;17.36;
46015;BME280;36844;51.898;-0.874;2023-12-29T04:24:59;99230.59;;;17.41;
46015;BME280;36844;51.898;-0.874;2023-12-29T04:27:25;99236.44;;;17.36;
46015;BME280;36844;51.898;-0.874;2023-12-29T04:29:50;99225.78;;;17.33;
46015;BME280;36844;51.898;-0.874;2023-12-29T04:32:15;99220.47;;;17.29;
46015;BME280;36844;51.898;-0.874;2023-12-29T04:34:41;99243.38;;;17.37;
46015;BME280;36844;51.898;-0.874;2023-12-29T04:37:06;99244.53;;;17.36;
46015;BME280;36844;51.898;-0.874;2023-12-29T04:39:31;99232.53;;;17.25;
46015;BME280;36844;51.898;-0.874;2023-12-29T04:41:57;99243.53;;;17.30;
46015;BME280;36844;51.898;-0.874;2023-12-29T04:44:22;99250.44;;;17.31;
46015;BME280;36844;51.898;-0.874;2023-12-29T04:46:47;99243.78;;;17.20;
46015;BME280;36844;51.898;-0.874;2023-12-29T04:49:13;99258.91;;;17.30;
46015;BME280;36844;51.898;-0.874;2023-12-29T04:51:38;99258.22;;;17.26;
46015;BME280;36844;51.898;-0.874;2023-12-29T04:54:04;99233.19;;;17.13;
46015;BME280;36844;51.898;-0.874;2023-12-29T04:56:30;99255.06;;;17.31;
46015;BME280;36844;51.898;-0.874;2023-12-29T04:58:55;99255.16;;;17.27;
46015;BME280;36844;51.898;-0.874;2023-12-29T05:01:21;99245.38;;;17.17;
46015;BME280;36844;51.898;-0.874;2023-12-29T05:03:47;99249.09;;;17.23;
46015;BME280;36844;51.898;-0.874;2023-12-29T05:06:12;99234.88;;;17.23;
46015;BME280;36844;51.898;-0.874;2023-12-29T05:08:37;99239.66;;;17.15;
46015;BME280;36844;51.898;-0.874;2023-12-29T05:11:03;99250.34;;;17.19;
46015;BME280;36844;51.898;-0.874;2023-12-29T05:13:28;99240.00;;;17.17;
46015;BME280;36844;51.898;-0.874;2023-12-29T05:15:54;99245.47;;;17.14;
46015;BME280;36844;51.898;-0.874;2023-12-29T05:18:20;99261.44;;;17.21;
46015;BME280;36844;51.898;-0.874;2023-12-29T05:20:45;99269.50;;;17.21;
46015;BME280;36844;51.898;-0.874;2023-12-29T05:23:10;99257.03;;;17.11;
46015;BME280;36844;51.898;-0.874;2023-12-29T05:25:35;99266.47;;;17.19;
46015;BME280;36844;51.898;-0.874;2023-12-29T05:28:01;99266.91;;;17.17;
46015;BME280;36844;51.898;-0.874;2023-12-29T05:30:26;99242.97;;;17.03;
46015;BME280;36844;51.898;-0.874;2023-12-29T05:32:52;99278.00;;;17.19;
46015;BME280;36844;51.898;-0.874;2023-12-29T05:35:18;99268.47;;;17.15;
46015;BME280;36844;51.898;-0.874;2023-12-29T05:37:43;99267.88;;;17.07;
46015;BME280;36844;51.898;-0.874;2023-12-29T05:40:09;99277.41;;;17.12;
46015;BME280;36844;51.898;-0.874;2023-12-29T05:42:34;99289.59;;;17.16;
46015;BME280;36844;51.898;-0.874;2023-12-29T05:45:00;99284.84;;;17.04;
46015;BME280;36844;51.898;-0.874;2023-12-29T05:47:25;99290.06;;;17.11;
46015;BME280;36844;51.898;-0.874;2023-12-29T05:49:50;99283.63;;;17.09;
46015;BME280;36844;51.898;-0.874;2023-12-29T05:52:16;99272.66;;;17.00;
46015;BME280;36844;51.898;-0.874;2023-12-29T05:54:41;99278.09;;;16.96;
46015;BME280;36844;51.898;-0.874;2023-12-29T05:57:06;99303.25;;;17.06;
46015;BME280;36844;51.898;-0.874;2023-12-29T05:59:32;99317.47;;;17.06;
46015;BME280;36844;51.898;-0.874;2023-12-29T06:01:57;99318.97;;;17.07;
46015;BME280;36844;51.898;-0.874;2023-12-29T06:04:22;99317.97;;;17.01;
46015;BME280;36844;51.898;-0.874;2023-12-29T06:06:48;99291.00;;;16.85;
46015;BME280;36844;51.898;-0.874;2023-12-29T06:09:13;99319.75;;;17.08;
46015;BME280;36844;51.898;-0.874;2023-12-29T06:11:38;99301.88;;;16.98;
46015;BME280;36844;51.898;-0.874;2023-12-29T06:14:04;99313.41;;;16.98;
46015;BME280;36844;51.898;-0.874;2023-12-29T06:16:29;99324.34;;;17.07;
46015;BME280;36844;51.898;-0.874;2023-12-29T06:18:55;99306.53;;;16.97;
46015;BME280;36844;51.898;-0.874;2023-12-29T06:21:21;99292.09;;;16.88;
46015;BME280;36844;51.898;-0.874;2023-12-29T06:23:46;99314.91;;;16.99;
46015;BME280;36844;51.898;-0.874;2023-12-29T06:26:19;99322.50;;;17.04;
46015;BME280;36844;51.898;-0.874;2023-12-29T06:28:46;99317.59;;;16.99;
46015;BME280;36844;51.898;-0.874;2023-12-29T06:31:11;99327.97;;;17.01;
46015;BME280;36844;51.898;-0.874;2023-12-29T06:33:40;99316.91;;;16.95;
46015;BME280;36844;51.898;-0.874;2023-12-29T06:36:06;99327.53;;;17.02;
46015;BME280;36844;51.898;-0.874;2023-12-29T06:38:32;99310.91;;;16.88;
46015;BME280;36844;51.898;-0.874;2023-12-29T06:41:02;99314.72;;;16.90;
46015;BME280;36844;51.898;-0.874;2023-12-29T06:43:27;99313.56;;;16.91;
46015;BME280;36844;51.898;-0.874;2023-12-29T06:45:53;99328.84;;;16.94;
46015;BME280;36844;51.898;-0.874;2023-12-29T06:48:18;99317.41;;;16.90;
46015;BME280;36844;51.898;-0.874;2023-12-29T06:50:44;99325.81;;;16.92;
46015;BME280;36844;51.898;-0.874;2023-12-29T06:53:09;99314.44;;;16.85;
46015;BME280;36844;51.898;-0.874;2023-12-29T06:55:34;99320.94;;;16.87;
46015;BME280;36844;51.898;-0.874;2023-12-29T06:58:00;99332.56;;;17.00;
46015;BME280;36844;51.898;-0.874;2023-12-29T07:00:25;99330.72;;;16.97;
46015;BME280;36844;51.898;-0.874;2023-12-29T07:02:50;99320.38;;;16.96;
46015;BME280;36844;51.898;-0.874;2023-12-29T07:05:16;99331.81;;;17.00;
46015;BME280;36844;51.898;-0.874;2023-12-29T07:07:41;99307.91;;;16.86;
46015;BME280;36844;51.898;-0.874;2023-12-29T07:10:07;99325.75;;;16.96;
46015;BME280;36844;51.898;-0.874;2023-12-29T07:12:32;99320.06;;;16.94;
46015;BME280;36844;51.898;-0.874;2023-12-29T07:14:57;99334.81;;;17.05;
46015;BME280;36844;51.898;-0.874;2023-12-29T07:17:23;99330.16;;;17.06;
46015;BME280;36844;51.898;-0.874;2023-12-29T07:19:48;99342.34;;;17.10;
46015;BME280;36844;51.898;-0.874;2023-12-29T07:22:15;99335.53;;;17.06;
46015;BME280;36844;51.898;-0.874;2023-12-29T07:24:40;99335.03;;;17.11;
46015;BME280;36844;51.898;-0.874;2023-12-29T07:27:06;99340.34;;;17.14;
46015;BME280;36844;51.898;-0.874;2023-12-29T07:29:33;99337.19;;;17.19;
46015;BME280;36844;51.898;-0.874;2023-12-29T07:31:58;99350.09;;;17.28;
46015;BME280;36844;51.898;-0.874;2023-12-29T07:34:24;99350.41;;;17.30;
46015;BME280;36844;51.898;-0.874;2023-12-29T07:36:49;99335.94;;;17.24;
46015;BME280;36844;51.898;-0.874;2023-12-29T07:39:15;99351.84;;;17.34;
46015;BME280;36844;51.898;-0.874;2023-12-29T07:41:41;99348.88;;;17.29;
46015;BME280;36844;51.898;-0.874;2023-12-29T07:44:12;99348.41;;;17.34;
46015;BME280;36844;51.898;-0.874;2023-12-29T07:46:39;99347.47;;;17.40;
46015;BME280;36844;51.898;-0.874;2023-12-29T07:49:05;99363.75;;;17.53;
46015;BME280;36844;51.898;-0.874;2023-12-29T07:51:30;99348.84;;;17.48;
46015;BME280;36844;51.898;-0.874;2023-12-29T07:53:56;99361.44;;;17.51;
46015;BME280;36844;51.898;-0.874;2023-12-29T07:56:22;99372.50;;;17.57;
46015;BME280;36844;51.898;-0.874;2023-12-29T07:58:47;99374.03;;;17.58;
46015;BME280;36844;51.898;-0.874;2023-12-29T08:01:12;99370.41;;;17.64;
46015;BME280;36844;51.898;-0.874;2023-12-29T08:03:38;99374.56;;;17.69;
46015;BME280;36844;51.898;-0.874;2023-12-29T08:06:03;99365.03;;;17.64;
46015;BME280;36844;51.898;-0.874;2023-12-29T08:08:28;99357.81;;;17.61;
46015;BME280;36844;51.898;-0.874;2023-12-29T08:10:54;99369.09;;;17.72;
46015;BME280;36844;51.898;-0.874;2023-12-29T08:13:19;99374.66;;;17.82;
46015;BME280;36844;51.898;-0.874;2023-12-29T08:15:44;99356.78;;;17.71;
46015;BME280;36844;51.898;-0.874;2023-12-29T08:18:10;99371.94;;;17.82;
46015;BME280;36844;51.898;-0.874;2023-12-29T08:20:35;99359.81;;;17.73;
46015;BME280;36844;51.898;-0.874;2023-12-29T08:23:02;99371.53;;;17.83;
46015;BME280;36844;51.898;-0.874;2023-12-29T08:25:28;99381.44;;;17.86;
46015;BME280;36844;51.898;-0.874;2023-12-29T08:27:53;99370.75;;;17.83;
46015;BME280;36844;51.898;-0.874;2023-12-29T08:30:19;99346.34;;;17.73;
46015;BME280;36844;51.898;-0.874;2023-12-29T08:32:44;99378.59;;;17.93;
46015;BME280;36844;51.898;-0.874;2023-12-29T08:35:09;99380.88;;;17.95;
46015;BME280;36844;51.898;-0.874;2023-12-29T08:37:35;99382.38;;;17.96;
46015;BME280;36844;51.898;-0.874;2023-12-29T08:40:00;99387.28;;;18.01;
46015;BME280;36844;51.898;-0.874;2023-12-29T08:42:25;99384.16;;;18.02;
46015;BME280;36844;51.898;-0.874;2023-12-29T08:44:52;99394.34;;;18.11;
46015;BME280;36844;51.898;-0.874;2023-12-29T08:47:18;99380.19;;;18.07;
46015;BME280;36844;51.898;-0.874;2023-12-29T08:49:43;99373.63;;;18.08;
46015;BME280;36844;51.898;-0.874;2023-12-29T08:52:08;99393.66;;;18.23;
46015;BME280;36844;51.898;-0.874;2023-12-29T08:54:34;99398.47;;;18.31;
46015;BME280;36844;51.898;-0.874;2023-12-29T08:57:00;99393.47;;;18.30;
46015;BME280;36844;51.898;-0.874;2023-12-29T08:59:25;99389.72;;;18.27;
46015;BME280;36844;51.898;-0.874;2023-12-29T09:01:50;99399.22;;;18.32;
46015;BME280;36844;51.898;-0.874;2023-12-29T09:04:16;99397.16;;;18.36;
46015;BME280;36844;51.898;-0.874;2023-12-29T09:06:41;99377.31;;;18.30;
46015;BME280;36844;51.898;-0.874;2023-12-29T09:09:07;99403.91;;;18.44;
46015;BME280;36844;51.898;-0.874;2023-12-29T09:11:32;99399.03;;;18.39;
46015;BME280;36844;51.898;-0.874;2023-12-29T09:13:57;99419.97;;;18.47;
46015;BME280;36844;51.898;-0.874;2023-12-29T09:16:23;99433.88;;;18.46;
46015;BME280;36844;51.898;-0.874;2023-12-29T09:18:48;99433.63;;;18.56;
46015;BME280;36844;51.898;-0.874;2023-12-29T09:21:13;99407.59;;;18.50;
46015;BME280;36844;51.898;-0.874;2023-12-29T09:23:39;99421.00;;;18.53;
46015;BME280;36844;51.898;-0.874;2023-12-29T09:26:04;99428.91;;;18.60;
46015;BME280;36844;51.898;-0.874;2023-12-29T09:28:32;99420.50;;;18.58;
46015;BME280;36844;51.898;-0.874;2023-12-29T09:30:58;99425.44;;;18.60;
46015;BME280;36844;51.898;-0.874;2023-12-29T09:33:23;99433.34;;;18.67;
46015;BME280;36844;51.898;-0.874;2023-12-29T09:35:50;99407.41;;;18.57;
46015;BME280;36844;51.898;-0.874;2023-12-29T09:38:15;99413.81;;;18.63;
46015;BME280;36844;51.898;-0.874;2023-12-29T09:40:41;99418.38;;;18.66;
46015;BME280;36844;51.898;-0.874;2023-12-29T09:43:07;99417.41;;;18.72;
46015;BME280;36844;51.898;-0.874;2023-12-29T09:45:37;99418.50;;;18.75;
46015;BME280;36844;51.898;-0.874;2023-12-29T09:48:07;99407.22;;;18.64;
46015;BME280;36844;51.898;-0.874;2023-12-29T09:50:34;99408.75;;;18.65;
46015;BME280;36844;51.898;-0.874;2023-12-29T09:53:01;99402.19;;;18.66;
46015;BME280;36844;51.898;-0.874;2023-12-29T09:55:27;99424.44;;;18.70;
46015;BME280;36844;51.898;-0.874;2023-12-29T09:57:53;99403.38;;;18.65;
46015;BME280;36844;51.898;-0.874;2023-12-29T10:00:20;99395.78;;;18.60;
46015;BME280;36844;51.898;-0.874;2023-12-29T10:02:46;99416.00;;;18.68;
46015;BME280;36844;51.898;-0.874;2023-12-29T10:05:11;99411.13;;;18.63;
46015;BME280;36844;51.898;-0.874;2023-12-29T10:07:37;99424.44;;;18.70;
46015;BME280;36844;51.898;-0.874;2023-12-29T10:10:04;99422.91;;;18.69;
46015;BME280;36844;51.898;-0.874;2023-12-29T10:12:30;99431.78;;;18.69;
46015;BME280;36844;51.898;-0.874;2023-12-29T10:15:15;99424.06;;;18.68;
46015;BME280;36844;51.898;-0.874;2023-12-29T10:18:20;99423.09;;;18.62;
46015;BME280;36844;51.898;-0.874;2023-12-29T10:21:07;99419.53;;;18.65;
46015;BME280;36844;51.898;-0.874;2023-12-29T10:26:15;99426.88;;;18.64;
46015;BME280;36844;51.898;-0.874;2023-12-29T10:28:40;99411.22;;;18.59;
46015;BME280;36844;51.898;-0.874;2023-12-29T10:31:05;99421.25;;;18.59;
46015;BME280;36844;51.898;-0.874;2023-12-29T10:33:33;99429.16;;;18.66;
46015;BME280;36844;51.898;-0.874;2023-12-29T10:36:07;99414.34;;;18.58;
46015;BME280;36844;51.898;-0.874;2023-12-29T10:38:34;99427.94;;;18.67;
46015;BME280;36844;51.898;-0.874;2023-12-29T10:41:16;99418.78;;;18.64;
46015;BME280;36844;51.898;-0.874;2023-12-29T10:43:43;99435.22;;;18.70;
46015;BME280;36844;51.898;-0.874;2023-12-29T10:46:10;99416.94;;;18.61;
46015;BME280;36844;51.898;-0.874;2023-12-29T10:48:37;99431.69;;;18.73;
46015;BME280;36844;51.898;-0.874;2023-12-29T10:51:04;99422.72;;;18.76;
46015;BME280;36844;51.898;-0.874;2023-12-29T10:53:36;99413.97;;;18.72;
46015;BME280;36844;51.898;-0.874;2023-12-29T10:56:02;99391.63;;;18.71;
46015;BME280;36844;51.898;-0.874;2023-12-29T10:58:28;99392.63;;;18.77;
46015;BME280;36844;51.898;-0.874;2023-12-29T11:00:58;99374.28;;;18.72;
46015;BME280;36844;51.898;-0.874;2023-12-29T11:03:25;99381.28;;;18.83;
46015;BME280;36844;51.898;-0.874;2023-12-29T11:05:51;99393.31;;;18.94;
46015;BME280;36844;51.898;-0.874;2023-12-29T11:08:23;99388.13;;;18.87;
46015;BME280;36844;51.898;-0.874;2023-12-29T11:10:49;99386.50;;;18.90;
46015;BME280;36844;51.898;-0.874;2023-12-29T11:13:15;99387.09;;;18.97;
46015;BME280;36844;51.898;-0.874;2023-12-29T11:15:45;99394.09;;;18.95;
46015;BME280;36844;51.898;-0.874;2023-12-29T11:18:17;99429.00;;;19.14;
46015;BME280;36844;51.898;-0.874;2023-12-29T11:20:44;99427.28;;;19.20;
46015;BME280;36844;51.898;-0.874;2023-12-29T11:23:11;99392.38;;;19.13;
46015;BME280;36844;51.898;-0.874;2023-12-29T11:25:38;99386.88;;;19.17;
46015;BME280;36844;51.898;-0.874;2023-12-29T11:28:06;99404.81;;;19.23;
46015;BME280;36844;51.898;-0.874;2023-12-29T11:30:33;99422.00;;;19.29;
46015;BME280;36844;51.898;-0.874;2023-12-29T11:38:12;99435.84;;;19.44;
46015;BME280;36844;51.898;-0.874;2023-12-29T11:40:45;99429.47;;;19.38;
46015;BME280;36844;51.898;-0.874;2023-12-29T11:43:16;99422.25;;;19.35;
46015;BME280;36844;51.898;-0.874;2023-12-29T11:45:42;99416.84;;;19.35;
46015;BME280;36844;51.898;-0.874;2023-12-29T11:48:07;99429.06;;;19.39;
46015;BME280;36844;51.898;-0.874;2023-12-29T11:50:34;99445.06;;;19.46;
46015;BME280;36844;51.898;-0.874;2023-12-29T11:53:02;99454.31;;;19.45;
46015;BME280;36844;51.898;-0.874;2023-12-29T11:55:29;99447.41;;;19.44;
46015;BME280;36844;51.898;-0.874;2023-12-29T11:57:55;99464.56;;;19.38;
46015;BME280;36844;51.898;-0.874;2023-12-29T12:00:20;99450.84;;;19.32;
46015;BME280;36844;51.898;-0.874;2023-12-29T12:02:46;99458.00;;;19.39;
46015;BME280;36844;51.898;-0.874;2023-12-29T12:05:48;99470.84;;;19.35;
46015;BME280;36844;51.898;-0.874;2023-12-29T12:08:34;99459.03;;;19.29;
46015;BME280;36844;51.898;-0.874;2023-12-29T12:12:01;99456.78;;;19.27;
46015;BME280;36844;51.898;-0.874;2023-12-29T12:14:08;99466.56;;;19.21;
46015;BME280;36844;51.898;-0.874;2023-12-29T12:19:14;99453.41;;;19.23;
46015;BME280;36844;51.898;-0.874;2023-12-29T12:21:40;99441.13;;;19.22;
46015;BME280;36844;51.898;-0.874;2023-12-29T12:24:06;99404.56;;;19.05;
46015;BME280;36844;51.898;-0.874;2023-12-29T12:26:32;99416.94;;;19.19;
46015;BME280;36844;51.898;-0.874;2023-12-29T12:28:58;99408.56;;;19.13;
46015;BME280;36844;51.898;-0.874;2023-12-29T12:31:24;99412.81;;;19.14;
46015;BME280;36844;51.898;-0.874;2023-12-29T12:33:59;99399.81;;;19.09;
46015;BME280;36844;51.898;-0.874;2023-12-29T12:36:28;99372.41;;;18.98;
46015;BME280;36844;51.898;-0.874;2023-12-29T12:38:55;99388.22;;;19.12;
46015;BME280;36844;51.898;-0.874;2023-12-29T12:41:21;99399.00;;;19.12;
46015;BME280;36844;51.898;-0.874;2023-12-29T12:44:12;99377.03;;;18.98;
46015;BME280;36844;51.898;-0.874;2023-12-29T12:46:51;99366.53;;;18.87;
46015;BME280;36844;51.898;-0.874;2023-12-29T12:49:20;99393.78;;;19.05;
46015;BME280;36844;51.898;-0.874;2023-12-29T12:51:46;99365.50;;;18.97;
46015;BME280;36844;51.898;-0.874;2023-12-29T12:54:12;99384.09;;;19.08;
46015;BME280;36844;51.898;-0.874;2023-12-29T12:56:41;99383.09;;;19.02;
46015;BME280;36844;51.898;-0.874;2023-12-29T12:59:07;99383.94;;;18.99;
46015;BME280;36844;51.898;-0.874;2023-12-29T13:01:36;99379.41;;;18.96;
46015;BME280;36844;51.898;-0.874;2023-12-29T13:04:03;99409.97;;;19.05;
46015;BME280;36844;51.898;-0.874;2023-12-29T13:06:33;99399.38;;;18.98;
46015;BME280;36844;51.898;-0.874;2023-12-29T13:09:00;99418.59;;;19.00;
46015;BME280;36844;51.898;-0.874;2023-12-29T13:11:28;99426.16;;;19.05;
46015;BME280;36844;51.898;-0.874;2023-12-29T13:13:53;99412.78;;;19.02;
46015;BME280;36844;51.898;-0.874;2023-12-29T13:16:33;99400.00;;;19.02;
46015;BME280;36844;51.898;-0.874;2023-12-29T13:19:19;99400.66;;;18.94;
46015;BME280;36844;51.898;-0.874;2023-12-29T13:21:46;99410.91;;;18.99;
46015;BME280;36844;51.898;-0.874;2023-12-29T13:24:13;99403.91;;;19.01;
46015;BME280;36844;51.898;-0.874;2023-12-29T13:26:41;99393.56;;;19.00;
46015;BME280;36844;51.898;-0.874;2023-12-29T13:29:06;99399.72;;;19.00;
46015;BME280;36844;51.898;-0.874;2023-12-29T13:31:32;99390.28;;;18.92;
46015;BME280;36844;51.898;-0.874;2023-12-29T13:34:01;99397.53;;;18.95;
46015;BME280;36844;51.898;-0.874;2023-12-29T13:36:35;99369.34;;;18.84;
46015;BME280;36844;51.898;-0.874;2023-12-29T13:41:52;99371.94;;;18.87;
46015;BME280;36844;51.898;-0.874;2023-12-29T13:44:18;99381.97;;;18.87;
46015;BME280;36844;51.898;-0.874;2023-12-29T13:46:45;99382.06;;;18.83;
46015;BME280;36844;51.898;-0.874;2023-12-29T13:49:11;99398.28;;;18.96;
46015;BME280;36844;51.898;-0.874;2023-12-29T13:51:37;99405.63;;;18.95;
46015;BME280;36844;51.898;-0.874;2023-12-29T13:54:02;99386.19;;;18.88;
46015;BME280;36844;51.898;-0.874;2023-12-29T13:56:28;99405.31;;;18.93;
46015;BME280;36844;51.898;-0.874;2023-12-29T13:58:54;99379.13;;;18.77;